Weather at Letiště Vyškov

Public forecast

Using degrees Celsius for public forecast. Weather courtesy of forecast.io.

Closest aviation weather report (METAR) to Letiště Vyškov

Closest report is Brno-Tuřany Airport, 15.8 nm (29.2 km) SW.

2024/05/28 11:00 (retrieved 26 minutes ago)

LKTB 281100Z 20007KT 140V250 9999 FEW042 23/13 Q1016 NOSIG

Closest aviation forecast (TAF) to Letiště Vyškov

Closest forecast is Brno-Tuřany Airport, 15.8 nm (29.2 km) SW.

2024/05/28 06:26 (retrieved 5 hours ago)

TAF LKTB 280500Z 2806/2906 12005KT CAVOK TEMPO 2811/2815 9999 -SHRA SCT035CB TEMPO 2819/2906 9999 SCT040